DTTX

Sfax Thyna International Airport

Sfax, Tunisia
METAR DTTX 220600Z 00000KT 6000 FEW020 16/13 Q1017
Observed Flight Rules
Apr-22 @ 06:00 UTC (57 minutes ago) Marginal Visual Flight Rules
Visibility Clouds
6,003 meters
  • Few at 2,000' AGL
Temperatures Readings
Current 16°C / 61°F
Dewpoint 13°C / 55°F
Humidity 83%
Altimeter 30.03" Hg
Pressure 1017 hPa
Elevation 23
METAR DTTX 220600Z 00000KT 6000 FEW020 16/13 Q1017
Observed Flight Rules
Apr-22 @ 06:00 UTC
(57 minutes ago)
MVFR
Clouds
  • Few at 2,000' AGL
Temperature Dewpoint
16°C / 61°F 13°C / 55°F
Humidity Altimeter Pressure
83% 30.03" Hg 1017 hPa